Time;durP1;ratioP1;P1;durP2;ratioP2;P2;SDS_P1;SDS_P2;PMS_P1;PMS_P2;Temp;Humidity;BMP_temperature;BMP_pressure;BME280_temperature;BME280_humidity;BME280_pressure;Samples;Min_cycle;Max_cycle;Signal;HPM_P1;HPM_P2
2023/10/17 00:02:27;;;;;;;13.45;9.95;;;;;;;2.86;100.00;101899.06;4914992;29;20492;-82
2023/10/17 00:04:52;;;;;;;15.55;10.70;;;;;;;2.88;100.00;101905.94;4912902;29;20082;-82
2023/10/17 00:07:20;;;;;;;;;;;;;;;2.91;100.00;101909.34;4915010;29;20040;-82
2023/10/17 00:09:47;;;;;;;14.48;9.85;;;;;;;2.93;100.00;101912.72;4913625;29;19971;-81
2023/10/17 00:15:24;;;;;;;;;;;;;;;2.99;100.00;101914.91;4910346;29;20036;-81
2023/10/17 00:17:30;;;;;;;16.33;10.75;;;;;;;3.09;100.00;101901.75;4905366;29;19934;-81
2023/10/17 00:19:57;;;;;;;17.90;11.05;;;;;;;3.13;100.00;101903.16;4916580;29;20024;-82
2023/10/17 00:22:25;;;;;;;23.98;12.35;;;;;;;3.15;100.00;101899.44;4916485;29;20470;-83
2023/10/17 00:25:09;;;;;;;22.90;12.68;;;;;;;3.24;100.00;101897.84;4910381;23;20035;-83
2023/10/17 00:27:35;;;;;;;23.40;13.40;;;;;;;3.29;100.00;101897.47;4939480;28;20081;-83
2023/10/17 00:30:01;;;;;;;18.92;12.57;;;;;;;3.31;100.00;101892.88;4937578;29;20435;-83
2023/10/17 00:32:31;;;;;;;18.30;12.07;;;;;;;3.35;100.00;101899.66;4940606;29;20031;-83
2023/10/17 00:34:57;;;;;;;17.58;12.32;;;;;;;3.37;100.00;101889.69;4937649;29;20047;-81
2023/10/17 00:37:30;;;;;;;;;;;;;;;3.39;100.00;101895.75;4938010;29;20047;-83
2023/10/17 00:39:56;;;;;;;14.23;10.85;;;;;;;3.32;100.00;101899.91;4937829;29;20009;-84
2023/10/17 00:42:29;;;;;;;;;;;;;;;3.28;100.00;101903.75;4955396;29;20031;-83
2023/10/17 00:44:55;;;;;;;15.80;11.45;;;;;;;3.23;100.00;101900.63;4941757;29;20014;-82
2023/10/17 00:47:22;;;;;;;;;;;;;;;3.26;100.00;101900.38;4956593;29;20045;-83
2023/10/17 00:49:50;;;;;;;18.80;11.07;;;;;;;3.25;100.00;101894.22;4941529;29;19918;-83
2023/10/17 00:52:25;;;;;;;15.30;11.02;;;;;;;3.26;100.00;101884.41;4942122;29;20113;-83
2023/10/17 00:54:53;;;;;;;14.70;10.40;;;;;;;3.25;100.00;101888.91;4928553;29;20027;-83
2023/10/17 00:57:27;;;;;;;14.80;10.70;;;;;;;3.27;100.00;101891.44;4935706;29;20155;-83
2023/10/17 01:00:11;;;;;;;17.27;11.73;;;;;;;3.28;100.00;101887.78;4943766;29;20031;-83
2023/10/17 01:02:44;;;;;;;22.30;12.35;;;;;;;3.31;100.00;101888.38;4948737;29;20050;-84
2023/10/17 01:05:11;;;;;;;19.92;11.65;;;;;;;3.34;100.00;101882.00;4924706;29;20162;-84
2023/10/17 01:07:39;;;;;;;17.38;11.32;;;;;;;3.37;100.00;101879.06;4948002;29;20028;-83
2023/10/17 01:10:17;;;;;;;15.40;11.35;;;;;;;3.39;100.00;101876.28;4947344;28;20498;-83
2023/10/17 01:13:04;;;;;;;18.67;12.65;;;;;;;3.42;100.00;101874.22;4931391;29;20102;-83
2023/10/17 01:15:32;;;;;;;16.23;11.45;;;;;;;3.45;100.00;101868.66;4943569;29;20023;-83
2023/10/17 01:18:04;;;;;;;19.55;12.15;;;;;;;3.51;100.00;101877.94;4947546;29;20031;-83
2023/10/17 01:20:30;;;;;;;18.50;12.43;;;;;;;3.55;100.00;101879.41;4953024;29;20038;-82
2023/10/17 01:22:56;;;;;;;;;;;;;;;3.61;100.00;101876.25;4954907;29;20035;-83
2023/10/17 01:25:25;;;;;;;20.50;11.85;;;;;;;3.60;100.00;101876.34;4939763;28;19934;-82
2023/10/17 01:27:53;;;;;;;18.27;11.13;;;;;;;3.62;100.00;101863.75;4936927;29;20156;-82
2023/10/17 01:30:22;;;;;;;16.63;11.32;;;;;;;3.63;100.00;101874.28;4940399;28;20078;-82
2023/10/17 01:32:51;;;;;;;19.25;12.20;;;;;;;3.67;100.00;101874.03;4952063;29;20031;-82
2023/10/17 01:35:19;;;;;;;16.08;11.43;;;;;;;3.67;100.00;101872.22;4951155;29;20071;-82
2023/10/17 01:37:46;;;;;;;17.20;10.82;;;;;;;3.65;100.00;101874.16;4944747;29;20400;-82
2023/10/17 01:40:22;;;;;;;16.92;11.43;;;;;;;3.66;100.00;101869.66;4941135;29;20058;-82
2023/10/17 01:42:49;;;;;;;;;;;;;;;3.67;100.00;101868.69;4949459;29;20046;-82
2023/10/17 01:45:15;;;;;;;15.70;11.33;;;;;;;3.64;100.00;101872.47;4954198;29;19922;-82
2023/10/17 01:47:40;;;;;;;;;;;;;;;3.67;100.00;101864.22;4952355;29;20035;-82
2023/10/17 01:50:10;;;;;;;15.00;10.90;;;;;;;3.64;100.00;101856.50;4934699;29;19966;-82
2023/10/17 01:52:42;;;;;;;18.20;11.05;;;;;;;3.67;100.00;101860.72;4925869;23;20036;-82
2023/10/17 01:55:13;;;;;;;17.33;12.13;;;;;;;3.69;100.00;101848.13;4913750;29;20039;-82
2023/10/17 01:57:40;;;;;;;18.60;12.52;;;;;;;3.74;100.00;101846.75;4915843;29;20040;-82
2023/10/17 02:00:17;;;;;;;18.20;12.13;;;;;;;3.77;100.00;101841.19;4915403;29;20119;-82
2023/10/17 02:02:43;;;;;;;17.58;11.75;;;;;;;3.78;100.00;101840.22;4916355;29;20048;-82
2023/10/17 02:05:12;;;;;;;;;;;;;;;3.81;100.00;101840.94;4915430;29;20024;-82
2023/10/17 02:07:38;;;;;;;15.20;10.77;;;;;;;3.81;100.00;101846.25;5142073;23;19997;-82
2023/10/17 02:10:09;;;;;;;;;;;;;;;3.75;100.00;101853.78;4954356;29;20070;-82
2023/10/17 02:12:35;;;;;;;16.25;10.52;;;;;;;3.75;100.00;101847.63;4947765;29;19915;-82
2023/10/17 02:15:00;;;;;;;;;;;;;;;3.74;100.00;101841.44;4958135;29;20027;-82
2023/10/17 02:17:26;;;;;;;20.88;10.82;;;;;;;3.75;100.00;101837.78;4956473;29;20344;-83
2023/10/17 02:19:53;;;;;;;;;;;;;;;3.78;100.00;101847.38;4939847;29;20492;-82
2023/10/17 02:22:19;;;;;;;17.25;10.77;;;;;;;3.81;100.00;101851.59;4955891;29;20429;-86
2023/10/17 02:24:44;;;;;;;;;;;;;;;3.82;100.00;101862.09;4957371;29;20031;-86
2023/10/17 02:27:12;;;;;;;13.50;10.87;;;;;;;3.85;100.00;101855.69;4951643;29;19930;-87
2023/10/17 02:29:41;;;;;;;18.23;11.82;;;;;;;3.82;100.00;101859.44;4955778;29;20042;-87
2023/10/17 02:32:14;;;;;;;15.98;11.18;;;;;;;3.81;100.00;101856.91;4938553;29;20467;-88
2023/10/17 02:34:40;;;;;;;18.17;12.20;;;;;;;3.87;100.00;101864.41;4954541;29;20027;-88
2023/10/17 02:37:10;;;;;;;18.90;11.70;;;;;;;3.85;100.00;101859.19;4956962;28;20031;-86
2023/10/17 02:39:37;;;;;;;15.77;11.30;;;;;;;3.84;100.00;101854.81;4959211;29;20042;-86
2023/10/17 02:42:08;;;;;;;14.82;10.40;;;;;;;3.84;100.00;101852.16;4957918;29;20039;-86
2023/10/17 02:44:34;;;;;;;14.93;10.48;;;;;;;3.84;100.00;101846.00;4958055;29;20047;-88
2023/10/17 02:47:01;;;;;;;;;;;;;;;3.85;100.00;101853.03;4963385;29;20107;-86
2023/10/17 02:49:28;;;;;;;;;;;;;;;3.83;100.00;101849.63;4971284;29;20031;-86
2023/10/17 02:51:54;;;;;;;17.00;11.05;;;;;;;3.89;100.00;101843.78;4970577;29;19918;-86
2023/10/17 02:54:20;;;;;;;16.60;10.52;;;;;;;3.88;100.00;101836.78;4948980;29;20039;-88
2023/10/17 02:56:53;;;;;;;;;;;;;;;3.88;100.00;101836.78;4958012;29;20023;-88
2023/10/17 02:59:21;;;;;;;13.48;9.82;;;;;;;3.91;100.00;101841.84;4943064;29;20375;-87
2023/10/17 03:01:52;;;;;;;17.05;11.13;;;;;;;3.91;100.00;101841.84;4957539;29;20046;-88
2023/10/17 03:04:23;;;;;;;15.35;10.57;;;;;;;3.85;100.00;101837.88;4959353;29;20082;-88
2023/10/17 03:06:49;;;;;;;16.98;10.88;;;;;;;3.87;100.00;101843.09;4957239;29;20046;-88
2023/10/17 03:17:11;;;;;;;15.40;11.40;;;;;;;3.88;100.00;101842.13;4954447;29;20047;-88
2023/10/17 03:19:42;;;;;;;15.40;10.32;;;;;;;3.84;100.00;101846.00;4955311;29;20046;-86
2023/10/17 03:22:24;;;;;;;12.80;9.98;;;;;;;3.83;100.00;101839.00;4956938;29;20436;-86
2023/10/17 03:24:51;;;;;;;14.32;10.82;;;;;;;3.83;100.00;101844.31;4960892;29;20046;-86
2023/10/17 03:30:14;;;;;;;13.02;9.98;;;;;;;3.73;100.00;101830.91;4943587;29;20118;-86
2023/10/17 03:32:53;;;;;;;14.88;10.30;;;;;;;3.74;100.00;101828.13;4956556;29;20031;-86
2023/10/17 03:35:21;;;;;;;14.98;11.10;;;;;;;3.75;100.00;101821.00;4960012;29;20122;-85
2023/10/17 03:37:47;;;;;;;18.33;10.63;;;;;;;3.72;100.00;101823.91;4964446;29;20042;-86
2023/10/17 03:40:19;;;;;;;;;;;;;;;3.74;100.00;101825.44;4960326;29;20039;-86
2023/10/17 03:42:46;;;;;;;15.10;10.55;;;;;;;3.81;100.00;101825.78;4955984;29;19994;-86
2023/10/17 03:45:13;;;;;;;15.70;11.27;;;;;;;3.85;100.00;101827.22;4956121;29;20027;-87
2023/10/17 03:47:59;;;;;;;19.52;11.35;;;;;;;3.89;100.00;101828.66;4954806;29;20027;-86
2023/10/17 03:50:48;;;;;;;14.15;10.50;;;;;;;3.90;100.00;101826.81;5174245;23;20091;-86
2023/10/17 03:53:29;;;;;;;18.92;11.20;;;;;;;3.92;100.00;101830.22;4916019;29;20040;-86
2023/10/17 03:55:55;;;;;;;15.30;10.63;;;;;;;3.93;100.00;101830.09;4914674;29;20119;-86
2023/10/17 04:00:53;;;;;;;15.73;10.60;;;;;;;3.93;100.00;101827.44;4914902;29;20331;-86
2023/10/17 04:03:21;;;;;;;16.92;10.48;;;;;;;3.96;100.00;101838.81;4916558;29;20055;-86
2023/10/17 04:05:50;;;;;;;17.38;11.32;;;;;;;3.99;100.00;101839.38;4924685;29;20036;-80
2023/10/17 04:08:19;;;;;;;25.58;12.65;;;;;;;4.02;100.00;101833.81;4929235;29;20107;-81
2023/10/17 04:11:08;;;;;;;19.15;11.48;;;;;;;4.01;100.00;101841.91;4922404;29;20040;-82
2023/10/17 04:13:37;;;;;;;14.00;10.90;;;;;;;4.01;100.00;101845.44;4915458;29;20119;-82
2023/10/17 04:16:16;;;;;;;18.88;11.65;;;;;;;4.02;100.00;101838.28;4915854;29;20029;-77
2023/10/17 04:18:44;;;;;;;15.18;10.75;;;;;;;3.99;100.00;101854.50;4914899;29;20095;-76
2023/10/17 04:23:59;;;;;;;14.63;10.60;;;;;;;4.06;100.00;101853.03;4899731;29;20044;-78
2023/10/17 04:26:28;;;;;;;17.60;10.52;;;;;;;4.06;100.00;101848.53;4913928;29;20079;-76
2023/10/17 04:29:00;;;;;;;16.33;10.50;;;;;;;4.05;100.00;101851.34;4915653;29;20028;-77
2023/10/17 04:34:07;;;;;;;15.52;10.63;;;;;;;4.05;100.00;101852.22;4575898;26;20420;-78
2023/10/17 04:36:36;;;;;;;17.42;10.13;;;;;;;4.07;100.00;101852.06;4953166;29;20036;-77
2023/10/17 04:42:04;;;;;;;21.08;10.98;;;;;;;4.12;100.00;101843.69;4953908;29;20035;-77
2023/10/17 04:44:50;;;;;;;17.98;11.15;;;;;;;4.12;100.00;101854.34;4953132;28;20099;-77
2023/10/17 04:49:52;;;;;;;17.38;11.50;;;;;;;4.12;100.00;101854.34;4953643;29;20039;-78
2023/10/17 04:52:21;;;;;;;24.70;11.60;;;;;;;4.11;100.00;101853.50;4953265;29;20384;-78
2023/10/17 04:54:47;;;;;;;20.17;11.25;;;;;;;4.09;100.00;101860.78;4975509;23;20058;-78
2023/10/17 04:57:16;;;;;;;17.50;11.45;;;;;;;4.11;100.00;101856.16;4972375;28;20047;-77
2023/10/17 06:16:59;;;;;;;28.42;13.85;;;;;;;4.05;100.00;101849.53;4976319;28;20441;-79
2023/10/17 06:19:32;;;;;;;21.55;12.68;;;;;;;3.96;100.00;101850.31;4953101;28;20601;-77
2023/10/17 06:30:47;;;;;;;29.17;14.02;;;;;;;3.90;100.00;101857.00;4979005;28;20085;-78
2023/10/17 06:39:12;;;;;;;29.15;15.00;;;;;;;4.14;100.00;101863.03;4956294;29;20059;-78
2023/10/17 06:41:41;;;;;;;25.88;14.63;;;;;;;4.18;100.00;101865.31;4958727;29;20073;-78
2023/10/17 06:44:08;;;;;;;25.75;14.15;;;;;;;4.22;100.00;101872.09;4956394;28;20031;-78
2023/10/17 06:46:48;;;;;;;22.10;13.05;;;;;;;4.23;100.00;101872.94;4951248;29;20031;-80
2023/10/17 06:54:49;;;;;;;28.33;15.50;;;;;;;4.23;100.00;101872.94;4937720;29;20512;-78
2023/10/17 06:57:36;;;;;;;27.10;14.60;;;;;;;4.35;100.00;101874.56;4937850;29;20028;-78
2023/10/17 07:00:24;;;;;;;26.13;14.40;;;;;;;4.94;100.00;101872.19;4938843;29;20111;-77
2023/10/17 07:02:49;;;;;;;18.77;12.23;;;;;;;5.44;100.00;101873.19;4957260;29;20043;-77
2023/10/17 07:05:21;;;;;;;;;;;;;;;6.01;100.00;101875.19;4967804;29;20407;-77
2023/10/17 07:07:52;;;;;;;13.80;9.77;;;;;;;6.11;100.00;101868.03;4967296;29;20279;-78
2023/10/17 07:10:37;;;;;;;11.65;8.77;;;;;;;6.77;100.00;101866.31;4956459;29;20047;-77
2023/10/17 07:13:41;;;;;;;12.60;8.85;;;;;;;7.70;100.00;101869.88;4956139;29;20035;-78
2023/10/17 07:16:12;;;;;;;10.73;8.13;;;;;;;8.63;100.00;101869.47;4956043;29;20078;-78
2023/10/17 07:23:45;;;;;;;9.43;7.90;;;;;;;9.32;90.25;101865.06;4956010;29;20106;-78
2023/10/17 07:26:45;;;;;;;13.68;8.48;;;;;;;9.05;88.82;101867.84;4955753;29;20053;-78
2023/10/17 07:29:05;;;;;;;11.80;8.20;;;;;;;8.92;91.78;101864.72;4955319;29;20035;-78
2023/10/17 07:31:33;;;;;;;12.48;7.70;;;;;;;9.61;88.31;101867.31;4954958;29;20047;-78
2023/10/17 07:36:39;;;;;;;9.75;7.38;;;;;;;10.90;81.73;101877.50;4955829;29;20098;-78
2023/10/17 07:39:22;;;;;;;10.43;7.50;;;;;;;11.75;75.73;101880.41;4954933;29;20050;-79
2023/10/17 07:41:53;;;;;;;9.88;7.18;;;;;;;12.70;72.79;101878.25;4954292;29;20027;-79
2023/10/17 07:44:21;;;;;;;10.25;7.60;;;;;;;12.21;74.21;101884.97;4956013;29;20032;-78
2023/10/17 07:46:50;;;;;;;8.63;6.65;;;;;;;12.41;71.24;101869.09;4953929;29;20460;-79
2023/10/17 07:49:26;;;;;;;10.02;7.43;;;;;;;12.48;71.74;101864.63;4937321;29;20384;-79
2023/10/17 07:52:22;;;;;;;9.55;7.65;;;;;;;12.42;71.49;101870.75;4955929;29;20033;-79
2023/10/17 08:08:46;;;;;;;8.43;7.20;;;;;;;13.69;67.07;101866.16;4934742;29;20568;-79
2023/10/17 08:11:27;;;;;;;8.95;7.55;;;;;;;13.48;66.66;101865.13;4935723;29;20020;-79
2023/10/17 08:13:55;;;;;;;9.77;7.60;;;;;;;13.41;67.67;101866.06;4935833;29;20083;-79
2023/10/17 08:16:28;;;;;;;8.93;7.35;;;;;;;12.54;71.33;101863.06;4943758;29;20078;-79
2023/10/17 08:24:13;;;;;;;8.10;7.18;;;;;;;13.04;69.18;101869.56;4951414;29;20409;-79
2023/10/17 08:26:42;;;;;;;10.60;7.50;;;;;;;13.00;67.87;101873.66;4954105;29;20536;-79
2023/10/17 08:29:10;;;;;;;10.57;7.30;;;;;;;12.65;69.22;101869.88;4954978;29;20031;-78
2023/10/17 08:31:44;;;;;;;8.25;7.32;;;;;;;13.26;69.32;101860.66;4953927;29;20102;-79
2023/10/17 08:34:12;;;;;;;9.77;7.55;;;;;;;11.83;73.59;101861.44;4954362;29;20041;-79
2023/10/17 08:36:53;;;;;;;10.98;7.90;;;;;;;12.48;72.12;101855.69;4954560;29;20480;-79
2023/10/17 08:42:11;;;;;;;11.25;8.00;;;;;;;12.19;72.79;101855.44;4934782;29;20046;-79
2023/10/17 08:44:38;;;;;;;10.43;7.97;;;;;;;11.60;74.93;101845.28;4934864;29;20043;-79
2023/10/17 08:47:30;;;;;;;12.40;7.85;;;;;;;10.80;78.17;101860.66;4917709;29;20030;-79
2023/10/17 08:50:30;;;;;;;12.95;8.20;;;;;;;10.60;79.94;101861.06;4915349;29;20040;-79
2023/10/17 08:52:59;;;;;;;11.93;8.10;;;;;;;10.33;82.92;101846.97;4921222;29;20050;-79
2023/10/17 08:55:24;;;;;;;11.90;8.63;;;;;;;10.37;82.78;101851.00;4931955;29;20047;-79
2023/10/17 08:57:50;;;;;;;10.00;7.70;;;;;;;10.48;81.98;101854.38;4953346;29;20027;-79
2023/10/17 09:00:39;;;;;;;11.25;8.45;;;;;;;10.26;82.96;101843.25;4953796;29;20047;-79
2023/10/17 09:03:08;;;;;;;12.35;8.60;;;;;;;10.02;84.35;101853.06;4953612;29;20031;-79
2023/10/17 09:05:33;;;;;;;13.27;7.78;;;;;;;10.51;83.71;101851.34;4953168;29;20028;-78
2023/10/17 09:08:03;;;;;;;12.00;7.50;;;;;;;10.19;85.23;101847.66;4920902;29;20032;-79
2023/10/17 09:10:39;;;;;;;12.73;7.85;;;;;;;10.38;85.18;101847.34;4950948;29;20479;-79
2023/10/17 09:15:56;;;;;;;11.50;7.18;;;;;;;10.04;84.87;101852.88;4953709;29;20138;-79
2023/10/17 09:18:28;;;;;;;11.88;7.30;;;;;;;9.89;87.15;101844.63;4953034;29;20047;-78
2023/10/17 09:20:57;;;;;;;11.48;7.10;;;;;;;9.99;86.16;101856.09;4954220;29;20027;-79
2023/10/17 09:23:23;;;;;;;12.10;7.68;;;;;;;9.86;86.51;101867.34;4954712;29;20035;-77
2023/10/17 09:26:00;;;;;;;12.93;7.13;;;;;;;9.90;86.29;101860.63;4959537;29;20032;-77
2023/10/17 09:28:29;;;;;;;9.98;7.28;;;;;;;9.80;85.74;101876.91;4961701;29;20169;-77
2023/10/17 09:31:03;;;;;;;9.70;7.30;;;;;;;10.15;85.07;101874.91;5273289;23;20039;-76
2023/10/17 09:33:33;;;;;;;12.23;7.70;;;;;;;10.32;84.93;101880.28;4897127;29;20045;-79
2023/10/17 09:36:04;;;;;;;10.55;7.35;;;;;;;10.22;84.97;101874.25;4900404;29;20059;-76
2023/10/17 09:38:31;;;;;;;13.00;7.30;;;;;;;10.39;84.44;101867.00;4900193;29;20100;-77
2023/10/17 09:40:59;;;;;;;12.55;7.45;;;;;;;10.60;83.48;101867.31;4899627;29;20028;-77
2023/10/17 09:43:24;;;;;;;10.82;7.18;;;;;;;10.90;83.09;101864.03;4905745;29;20040;-77
2023/10/17 09:45:52;;;;;;;11.35;7.13;;;;;;;10.94;80.78;101859.97;4917061;29;20108;-77
2023/10/17 09:48:21;;;;;;;11.38;6.70;;;;;;;11.05;80.81;101870.34;4898978;29;20036;-79
2023/10/17 09:50:47;;;;;;;11.07;6.80;;;;;;;11.09;79.12;101867.31;4899732;29;20106;-79
2023/10/17 09:53:16;;;;;;;12.27;7.13;;;;;;;11.10;79.93;101866.31;4897941;29;20477;-79
2023/10/17 09:55:49;;;;;;;7.53;5.78;;;;;;;11.20;79.65;101870.47;4911013;29;20068;-80
2023/10/17 09:58:20;;;;;;;10.98;6.32;;;;;;;11.46;78.61;101858.50;4916347;29;20036;-78
2023/10/17 10:00:50;;;;;;;11.50;5.68;;;;;;;11.39;77.49;101862.94;4882622;29;20047;-79
2023/10/17 10:03:17;;;;;;;9.25;5.93;;;;;;;11.36;77.95;101866.00;4915184;29;20028;-77
2023/10/17 10:05:42;;;;;;;11.40;5.90;;;;;;;11.32;78.38;101878.16;4898366;29;20063;-77
2023/10/17 10:08:28;;;;;;;9.20;5.80;;;;;;;11.26;75.63;101871.63;4914617;29;20032;-77
2023/10/17 10:10:54;;;;;;;9.00;5.45;;;;;;;11.13;76.13;101861.41;4914135;29;20028;-77
2023/10/17 10:13:19;;;;;;;10.13;5.35;;;;;;;10.88;76.99;101858.78;4917992;29;20032;-79
2023/10/17 10:16:03;;;;;;;9.13;5.13;;;;;;;10.56;77.50;101870.53;4917266;29;20036;-79
2023/10/17 10:18:35;;;;;;;7.38;4.72;;;;;;;10.49;78.86;101874.91;4918402;29;20389;-79
2023/10/17 10:21:22;;;;;;;5.95;4.93;;;;;;;10.36;78.37;101881.63;4919125;29;20119;-79
2023/10/17 10:23:50;;;;;;;10.13;4.70;;;;;;;10.51;79.44;101872.88;4917322;29;20047;-78
2023/10/17 10:26:19;;;;;;;8.25;4.60;;;;;;;10.51;78.78;101873.69;4885039;29;20084;-78
2023/10/17 10:28:47;;;;;;;7.50;4.63;;;;;;;10.60;77.66;101871.84;4919920;29;20051;-78
2023/10/17 10:34:06;;;;;;;8.25;4.63;;;;;;;10.71;77.47;101860.72;4933895;29;20508;-79
2023/10/17 10:36:33;;;;;;;6.38;4.45;;;;;;;10.94;76.76;101865.34;4937167;29;20040;-78
2023/10/17 10:39:12;;;;;;;6.47;4.15;;;;;;;10.92;76.11;101862.00;4938337;29;20379;-79
2023/10/17 10:41:57;;;;;;;6.78;4.35;;;;;;;10.95;75.83;101875.09;4906105;29;20052;-78
2023/10/17 10:44:28;;;;;;;5.82;4.18;;;;;;;10.81;75.68;101857.81;4920901;29;20032;-79
2023/10/17 10:47:31;;;;;;;6.20;3.78;;;;;;;11.05;78.08;101847.94;4907309;29;20096;-79
2023/10/17 10:50:34;;;;;;;5.78;3.83;;;;;;;11.10;74.18;101844.75;4922182;29;20468;-80
2023/10/17 10:57:00;;;;;;;4.43;3.50;;;;;;;11.19;74.36;101840.97;4920304;29;20600;-79
2023/10/17 10:59:26;;;;;;;7.72;3.85;;;;;;;11.20;72.46;101837.28;4920775;29;20035;-79
2023/10/17 11:05:14;;;;;;;5.72;3.55;;;;;;;11.80;71.20;101824.06;4922147;29;20043;-78
2023/10/17 11:07:44;;;;;;;5.22;3.67;;;;;;;12.55;66.93;101822.34;4920147;29;20028;-79
2023/10/17 11:10:25;;;;;;;7.35;3.60;;;;;;;12.86;67.51;101815.91;4919851;29;20422;-79
2023/10/17 11:13:08;;;;;;;5.20;3.33;;;;;;;13.84;62.60;101814.69;4916289;29;20048;-78
2023/10/17 11:15:52;;;;;;;5.22;3.25;;;;;;;15.52;59.36;101821.00;4917630;29;20046;-77
2023/10/17 11:24:44;;;;;;;4.00;3.08;;;;;;;16.63;53.05;101807.75;5745006;23;20070;-77
2023/10/17 11:27:32;;;;;;;4.85;3.80;;;;;;;15.13;55.53;101807.09;4956769;28;20107;-78
2023/10/17 11:30:45;;;;;;;3.90;3.50;;;;;;;13.99;60.04;101802.94;4937705;29;20031;-78
2023/10/17 11:39:07;;;;;;;6.55;3.95;;;;;;;13.54;62.84;101801.28;4928447;29;20039;-78
2023/10/17 11:41:41;;;;;;;5.00;2.95;;;;;;;14.15;60.14;101789.09;4922459;29;20035;-79
2023/10/17 11:44:12;;;;;;;6.70;3.15;;;;;;;13.77;59.65;101792.13;4962398;28;20054;-79
2023/10/17 11:46:38;;;;;;;5.57;3.30;;;;;;;13.43;61.69;101778.28;4972795;28;20117;-79
2023/10/17 11:49:26;;;;;;;4.32;3.28;;;;;;;13.54;60.77;101776.13;4979946;23;20076;-78
2023/10/17 11:52:12;;;;;;;5.47;3.10;;;;;;;13.68;60.74;101766.25;4974276;28;20106;-78
2023/10/17 11:54:53;;;;;;;5.00;3.33;;;;;;;12.80;63.69;101759.06;4972195;28;20039;-79
2023/10/17 11:57:22;;;;;;;4.60;3.60;;;;;;;12.68;64.85;101753.34;4974920;28;20036;-78
2023/10/17 11:59:55;;;;;;;6.15;3.78;;;;;;;13.42;62.88;101751.44;4974320;28;20022;-80
2023/10/17 12:02:21;;;;;;;4.05;3.55;;;;;;;14.44;59.18;101751.13;4973203;28;20058;-79
2023/10/17 12:04:46;;;;;;;4.00;3.10;;;;;;;14.94;56.90;101748.22;4975482;28;20027;-80
2023/10/17 12:07:11;;;;;;;5.20;3.00;;;;;;;15.41;53.79;101740.19;4974198;28;20122;-79
2023/10/17 12:09:37;;;;;;;4.13;2.83;;;;;;;15.61;54.00;101748.34;4973820;28;20022;-80
2023/10/17 12:12:06;;;;;;;3.38;2.55;;;;;;;15.66;53.08;101740.41;4975456;28;20027;-79
2023/10/17 12:14:32;;;;;;;4.03;2.97;;;;;;;15.19;53.49;101740.34;4970630;28;20117;-78
2023/10/17 12:17:00;;;;;;;5.53;2.88;;;;;;;15.74;53.64;101744.78;4973532;28;20030;-79
2023/10/17 12:19:28;;;;;;;4.47;3.08;;;;;;;15.11;54.00;101748.69;4975317;28;20110;-79
2023/10/17 12:21:54;;;;;;;6.80;3.42;;;;;;;15.06;54.97;101746.59;4973404;28;20041;-78
2023/10/17 12:24:24;;;;;;;5.10;3.05;;;;;;;15.02;54.93;101739.91;4973945;28;20396;-80
2023/10/17 12:26:52;;;;;;;5.35;3.20;;;;;;;15.07;54.43;101744.72;4973813;28;20030;-79
2023/10/17 12:29:17;;;;;;;5.55;3.03;;;;;;;15.45;53.01;101733.31;4972605;28;20089;-79
2023/10/17 12:31:43;;;;;;;4.63;2.92;;;;;;;15.97;51.39;101735.41;4973404;28;20506;-79
2023/10/17 12:34:08;;;;;;;4.45;2.67;;;;;;;15.63;52.18;101720.97;4974410;28;20034;-79
2023/10/17 12:36:37;;;;;;;4.57;2.80;;;;;;;15.84;51.97;101717.19;4973394;28;20023;-79
2023/10/17 12:41:50;;;;;;;4.07;2.83;;;;;;;16.59;50.60;101705.94;4973236;28;20201;-79
2023/10/17 12:44:28;;;;;;;4.20;2.83;;;;;;;16.41;48.83;101709.38;4959825;28;20038;-77
2023/10/17 12:46:53;;;;;;;4.25;3.00;;;;;;;16.34;49.31;101698.50;4973144;28;20589;-80
2023/10/17 12:49:26;;;;;;;5.55;3.00;;;;;;;17.02;49.24;101707.19;4973310;28;20046;-79
2023/10/17 12:51:53;;;;;;;5.25;3.00;;;;;;;17.12;48.31;101704.81;4972973;28;20027;-78
2023/10/17 12:54:21;;;;;;;4.65;2.50;;;;;;;17.80;46.58;101713.28;4973034;28;20027;-79
2023/10/17 12:56:46;;;;;;;3.20;2.42;;;;;;;18.47;44.12;101709.81;4973012;28;20387;-79
2023/10/17 12:59:12;;;;;;;4.18;2.65;;;;;;;18.17;44.88;101707.06;4973324;28;20054;-79
2023/10/17 13:01:40;;;;;;;4.47;3.03;;;;;;;18.01;45.31;101703.03;4972625;28;20039;-79
2023/10/17 13:04:07;;;;;;;3.03;2.72;;;;;;;17.51;45.55;101698.44;4972061;28;20066;-79
2023/10/17 13:06:34;;;;;;;3.40;2.78;;;;;;;17.42;45.19;101698.75;4973235;28;20022;-79
2023/10/17 13:09:01;;;;;;;4.47;2.70;;;;;;;17.67;45.68;101688.91;4955454;28;20033;-79
2023/10/17 13:11:31;;;;;;;4.18;2.92;;;;;;;18.16;44.95;101675.44;4973692;28;20073;-78
2023/10/17 13:13:57;;;;;;;3.17;2.80;;;;;;;18.10;43.70;101676.31;4973482;28;20031;-77
2023/10/17 13:19:29;;;;;;;3.50;2.70;;;;;;;16.75;47.05;101649.38;4954175;28;20034;-79
2023/10/17 13:22:49;;;;;;;3.35;2.50;;;;;;;17.66;45.92;101654.56;4967475;28;20043;-78
2023/10/17 13:26:08;;;;;;;3.33;2.70;;;;;;;18.05;45.03;101657.94;4972633;28;20086;-79
2023/10/17 13:29:23;;;;;;;4.15;2.80;;;;;;;17.12;45.79;101653.13;4971666;28;20100;-79
2023/10/17 13:31:51;;;;;;;3.67;2.70;;;;;;;16.70;46.84;101652.78;4972764;28;20990;-79
2023/10/17 13:34:29;;;;;;;5.15;2.72;;;;;;;16.51;47.64;101640.94;4957364;28;20352;-79
2023/10/17 13:36:57;;;;;;;5.18;2.90;;;;;;;17.13;46.04;101641.19;4955643;28;20027;-78
2023/10/17 13:42:27;;;;;;;3.50;2.70;;;;;;;15.56;49.47;101634.97;4960585;23;20059;-79
2023/10/17 13:44:56;;;;;;;4.40;2.78;;;;;;;15.64;49.75;101633.09;4923319;29;20040;-78
2023/10/17 13:48:09;;;;;;;5.40;3.08;;;;;;;15.94;50.10;101630.75;4934203;29;20039;-78
2023/10/17 13:50:34;;;;;;;5.65;2.97;;;;;;;15.77;51.08;101623.03;4912003;29;20035;-78
2023/10/17 13:56:21;;;;;;;4.03;3.08;;;;;;;13.79;57.33;101612.28;4945711;23;20064;-77
2023/10/17 13:58:48;;;;;;;4.47;3.17;;;;;;;13.51;57.85;101625.84;4924228;29;20051;-78
2023/10/17 14:01:27;;;;;;;4.28;3.40;;;;;;;13.10;58.65;101619.25;4924668;29;20131;-77
2023/10/17 14:03:55;;;;;;;4.38;3.42;;;;;;;12.98;60.26;101610.84;4928972;29;20527;-79
2023/10/17 14:06:42;;;;;;;5.90;3.50;;;;;;;12.59;61.43;101607.56;4910434;29;20128;-78
2023/10/17 14:09:14;;;;;;;;;;;;;;;12.43;61.98;101605.09;4903371;29;20016;-78
2023/10/17 14:11:46;;;;;;;4.38;3.50;;;;;;;12.48;62.61;101597.28;4916934;29;19919;-78
2023/10/17 14:14:31;;;;;;;4.70;3.70;;;;;;;12.40;63.85;101598.22;4899715;29;20028;-78
2023/10/17 14:16:58;;;;;;;4.50;3.55;;;;;;;12.34;62.24;101592.75;4917485;29;20545;-79
2023/10/17 14:25:03;;;;;;;5.25;3.78;;;;;;;12.20;62.71;101603.38;4918866;29;20079;-78
2023/10/17 14:27:32;;;;;;;4.68;3.55;;;;;;;11.70;64.20;101594.19;4919134;29;20060;-78
2023/10/17 14:30:00;;;;;;;5.50;4.15;;;;;;;11.61;64.21;101594.31;4920727;29;20583;-78
2023/10/17 14:32:26;;;;;;;4.50;4.10;;;;;;;11.57;64.56;101592.13;4923100;29;20024;-78
2023/10/17 14:34:52;;;;;;;4.80;3.65;;;;;;;11.66;64.38;101586.47;4915267;29;20079;-78
2023/10/17 14:37:23;;;;;;;5.65;3.50;;;;;;;11.73;66.36;101578.50;4920841;29;20028;-78
2023/10/17 14:39:49;;;;;;;9.05;4.20;;;;;;;11.77;65.02;101576.25;4900996;29;20366;-78
2023/10/17 14:42:21;;;;;;;5.18;4.25;;;;;;;11.62;66.10;101574.41;4900913;29;20052;-78
2023/10/17 14:44:52;;;;;;;4.22;3.67;;;;;;;11.50;66.34;101575.88;4916487;29;20048;-77
2023/10/17 14:47:18;;;;;;;8.50;4.10;;;;;;;11.40;67.53;101559.13;4882837;29;20111;-78
2023/10/17 14:49:55;;;;;;;7.22;4.13;;;;;;;11.22;66.99;101574.63;4897826;29;20393;-78
2023/10/17 14:52:25;;;;;;;5.20;3.63;;;;;;;11.22;67.80;101566.53;4898492;29;20056;-79
2023/10/17 14:54:51;;;;;;;5.93;4.10;;;;;;;11.19;67.75;101568.78;4895153;29;20544;-78
2023/10/17 14:57:17;;;;;;;4.85;4.18;;;;;;;11.21;67.55;101569.44;4916635;29;20048;-78
2023/10/17 14:59:46;;;;;;;6.03;4.55;;;;;;;11.09;67.20;101577.13;4900929;29;20043;-77
2023/10/17 15:02:11;;;;;;;6.03;4.32;;;;;;;11.11;67.31;101561.59;4918857;29;20087;-77